createdAt,value
2017-07-07T00:00:04.188Z,808.76
2017-07-07T00:00:08.024Z,808.75
2017-07-07T00:00:12.095Z,808.73
2017-07-07T00:00:16.306Z,808.75
2017-07-07T00:00:20.243Z,808.72
2017-07-07T00:00:24.070Z,808.72
2017-07-07T00:00:28.270Z,808.7
2017-07-07T00:00:32.223Z,808.69
2017-07-07T00:00:36.306Z,808.69
2017-07-07T00:00:40.384Z,808.63
2017-07-07T00:00:44.456Z,808.67
2017-07-07T00:00:48.920Z,808.66
2017-07-07T00:00:53.109Z,808.64
2017-07-07T00:00:56.948Z,808.63
2017-07-07T00:01:00.793Z,808.64
2017-07-07T00:01:04.988Z,808.63
2017-07-07T00:01:08.940Z,808.58
2017-07-07T00:01:12.942Z,808.59
2017-07-07T00:01:16.911Z,808.61
2017-07-07T00:01:21.108Z,808.53
2017-07-07T00:01:25.073Z,808.56
2017-07-07T00:01:29.299Z,808.55
2017-07-07T00:01:33.378Z,808.56
2017-07-07T00:01:37.585Z,808.53
2017-07-07T00:01:41.660Z,808.51
2017-07-07T00:01:45.732Z,808.48
2017-07-07T00:01:49.855Z,808.54
2017-07-07T00:01:53.796Z,808.49
2017-07-07T00:01:57.617Z,808.46
2017-07-07T00:02:01.310Z,808.49
2017-07-07T00:02:05.423Z,808.48
2017-07-07T00:02:09.367Z,808.46
2017-07-07T00:02:13.571Z,808.4
2017-07-07T00:02:17.778Z,808.44
2017-07-07T00:02:22.098Z,808.41
2017-07-07T00:02:25.926Z,808.41
2017-07-07T00:02:30.268Z,808.36
2017-07-07T00:02:34.348Z,808.41
2017-07-07T00:02:38.817Z,808.39
2017-07-07T00:02:42.516Z,808.39
2017-07-07T00:02:46.843Z,808.39
2017-07-07T00:02:50.792Z,808.35
2017-07-07T00:02:54.864Z,808.34
2017-07-07T00:02:59.321Z,808.37
2017-07-07T00:03:03.430Z,808.36
2017-07-07T00:03:07.886Z,808.38
2017-07-07T00:03:11.587Z,808.34
2017-07-07T00:03:15.666Z,808.31
2017-07-07T00:03:19.625Z,808.3
2017-07-07T00:03:23.815Z,808.33
2017-07-07T00:03:27.776Z,808.27
2017-07-07T00:03:32.110Z,808.29
2017-07-07T00:03:36.317Z,808.27
2017-07-07T00:03:40.532Z,808.29
2017-07-07T00:03:44.487Z,808.27
2017-07-07T00:03:48.317Z,808.27
2017-07-07T00:03:52.400Z,808.21
2017-07-07T00:03:56.345Z,808.28
2017-07-07T00:04:00.424Z,808.25
2017-07-07T00:04:04.910Z,808.24
2017-07-07T00:04:09.003Z,808.2
2017-07-07T00:04:13.073Z,808.24
2017-07-07T00:04:17.136Z,808.23
2017-07-07T00:04:21.222Z,808.24
2017-07-07T00:04:25.297Z,808.21
2017-07-07T00:04:28.990Z,808.23
2017-07-07T00:04:33.196Z,808.23
2017-07-07T00:04:37.502Z,808.23
2017-07-07T00:04:41.715Z,808.21
2017-07-07T00:04:45.793Z,808.23
2017-07-07T00:04:49.746Z,808.21
2017-07-07T00:04:53.944Z,808.25
2017-07-07T00:04:58.154Z,808.22
2017-07-07T00:05:02.421Z,808.22
2017-07-07T00:05:06.636Z,808.22
2017-07-07T00:05:10.978Z,808.22
2017-07-07T00:05:15.193Z,808.18
2017-07-07T00:05:19.252Z,808.23
2017-07-07T00:05:23.218Z,808.2
2017-07-07T00:05:27.171Z,808.22
2017-07-07T00:05:31.115Z,808.19
2017-07-07T00:05:35.060Z,808.25
2017-07-07T00:05:39.142Z,808.18
2017-07-07T00:05:43.206Z,808.23
2017-07-07T00:05:47.169Z,808.23
2017-07-07T00:05:51.141Z,808.24
2017-07-07T00:05:55.465Z,808.23
2017-07-07T00:05:59.802Z,808.26
2017-07-07T00:06:03.623Z,808.23
2017-07-07T00:06:07.999Z,808.19
2017-07-07T00:06:11.908Z,808.23
2017-07-07T00:06:16.356Z,808.22
2017-07-07T00:06:20.672Z,808.24
2017-07-07T00:06:24.635Z,808.24
2017-07-07T00:06:28.842Z,808.22
2017-07-07T00:06:33.042Z,808.23
2017-07-07T00:06:37.131Z,808.23
2017-07-07T00:06:41.075Z,808.24
2017-07-07T00:06:45.542Z,808.23
2017-07-07T00:06:49.513Z,808.24
2017-07-07T00:06:53.473Z,808.25
2017-07-07T00:06:57.429Z,808.22
2017-07-07T00:07:01.509Z,808.21
2017-07-07T00:07:05.675Z,808.3
2017-07-07T00:07:09.883Z,808.26
2017-07-07T00:07:13.850Z,808.24
2017-07-07T00:07:17.910Z,808.25
2017-07-07T00:07:22.115Z,808.25
2017-07-07T00:07:26.201Z,808.25
2017-07-07T00:07:30.266Z,808.22
2017-07-07T00:07:34.105Z,808.26
2017-07-07T00:07:38.178Z,808.27
2017-07-07T00:07:42.135Z,808.26
2017-07-07T00:07:46.345Z,808.24
2017-07-07T00:07:50.558Z,808.27
2017-07-07T00:07:54.633Z,808.29
2017-07-07T00:07:58.715Z,808.27
2017-07-07T00:08:02.664Z,808.27
2017-07-07T00:08:06.484Z,808.28
2017-07-07T00:08:10.434Z,808.3
2017-07-07T00:08:14.519Z,808.3
2017-07-07T00:08:18.735Z,808.28
2017-07-07T00:08:22.672Z,808.31
2017-07-07T00:08:26.741Z,808.28
2017-07-07T00:08:30.818Z,808.28
2017-07-07T00:08:34.896Z,808.31
2017-07-07T00:08:38.993Z,808.27
2017-07-07T00:08:43.327Z,808.3
2017-07-07T00:08:47.155Z,808.32
2017-07-07T00:08:51.107Z,808.32
2017-07-07T00:08:54.923Z,808.26
2017-07-07T00:08:59.137Z,808.3
2017-07-07T00:09:03.187Z,808.29
2017-07-07T00:09:07.378Z,808.28
2017-07-07T00:09:11.203Z,808.29
2017-07-07T00:09:15.157Z,808.27
2017-07-07T00:09:19.620Z,808.32
2017-07-07T00:09:23.697Z,808.29
2017-07-07T00:09:27.659Z,808.3
2017-07-07T00:09:31.625Z,808.31
2017-07-07T00:09:35.586Z,808.33
2017-07-07T00:09:40.037Z,808.3
2017-07-07T00:09:43.992Z,808.29
2017-07-07T00:09:48.195Z,808.31
2017-07-07T00:09:52.392Z,808.31
2017-07-07T00:09:56.483Z,808.29
2017-07-07T00:10:00.688Z,808.29
2017-07-07T00:10:05.213Z,808.31
2017-07-07T00:10:09.150Z,808.32
2017-07-07T00:10:13.104Z,808.3
2017-07-07T00:10:17.181Z,808.31
2017-07-07T00:10:21.257Z,808.32
2017-07-07T00:10:25.083Z,808.31
2017-07-07T00:10:28.893Z,808.25
2017-07-07T00:10:32.851Z,808.3
2017-07-07T00:10:37.332Z,808.32
2017-07-07T00:10:41.401Z,808.32
2017-07-07T00:10:45.338Z,808.33
2017-07-07T00:10:49.291Z,808.32
2017-07-07T00:10:53.614Z,808.3
2017-07-07T00:10:57.694Z,808.34
2017-07-07T00:11:01.653Z,808.31
2017-07-07T00:11:05.724Z,808.31
2017-07-07T00:11:09.803Z,808.28
2017-07-07T00:11:13.760Z,808.31
2017-07-07T00:11:18.051Z,808.31
2017-07-07T00:11:21.872Z,808.27
2017-07-07T00:11:25.818Z,808.3
2017-07-07T00:11:30.024Z,808.29
2017-07-07T00:11:34.354Z,808.31
2017-07-07T00:11:38.554Z,808.29
2017-07-07T00:11:42.488Z,808.29
2017-07-07T00:11:46.816Z,808.31
2017-07-07T00:11:50.888Z,808.31
2017-07-07T00:11:55.085Z,808.29
2017-07-07T00:11:59.169Z,808.31
2017-07-07T00:12:03.244Z,808.29
2017-07-07T00:12:07.334Z,808.26
2017-07-07T00:12:11.168Z,808.28
2017-07-07T00:12:15.133Z,808.3
2017-07-07T00:12:19.091Z,808.28
2017-07-07T00:12:23.173Z,808.27
2017-07-07T00:12:26.997Z,808.28
2017-07-07T00:12:31.064Z,808.25
2017-07-07T00:12:35.385Z,808.26
2017-07-07T00:12:39.611Z,808.25
2017-07-07T00:12:43.429Z,808.29
2017-07-07T00:12:47.883Z,808.26
2017-07-07T00:12:52.091Z,808.26
2017-07-07T00:12:56.441Z,808.23
2017-07-07T00:13:00.653Z,808.23
2017-07-07T00:13:04.798Z,808.27
2017-07-07T00:13:09.007Z,808.22
2017-07-07T00:13:13.086Z,808.23
2017-07-07T00:13:17.293Z,808.29
2017-07-07T00:13:21.375Z,808.27
2017-07-07T00:13:25.345Z,808.25
2017-07-07T00:13:29.421Z,808.24
2017-07-07T00:13:33.744Z,808.24
2017-07-07T00:13:38.062Z,808.25
2017-07-07T00:13:41.880Z,808.21
2017-07-07T00:13:45.569Z,808.24
2017-07-07T00:13:49.389Z,808.23
2017-07-07T00:13:53.591Z,808.24
2017-07-07T00:13:57.780Z,808.23
2017-07-07T00:14:01.855Z,808.2
2017-07-07T00:14:06.224Z,808.23
2017-07-07T00:14:10.291Z,808.2
2017-07-07T00:14:14.355Z,808.2
2017-07-07T00:14:18.322Z,808.18
2017-07-07T00:14:22.269Z,808.19
2017-07-07T00:14:26.091Z,808.23
2017-07-07T00:14:30.295Z,808.18
2017-07-07T00:14:34.370Z,808.18
2017-07-07T00:14:38.698Z,808.17
2017-07-07T00:14:42.776Z,808.19
2017-07-07T00:14:46.971Z,808.14
2017-07-07T00:14:51.056Z,808.18
2017-07-07T00:14:55.007Z,808.17
2017-07-07T00:14:59.224Z,808.18
2017-07-07T00:15:03.286Z,808.18
2017-07-07T00:15:07.365Z,808.11
2017-07-07T00:15:11.573Z,808.15
2017-07-07T00:15:15.784Z,808.16
2017-07-07T00:15:19.873Z,808.12
2017-07-07T00:15:23.708Z,808.14
2017-07-07T00:15:27.786Z,808.11
2017-07-07T00:15:32.126Z,808.16
2017-07-07T00:15:36.077Z,808.14
2017-07-07T00:15:40.400Z,808.11
2017-07-07T00:15:44.346Z,808.1
2017-07-07T00:15:48.552Z,808.11
2017-07-07T00:15:52.755Z,808.08
2017-07-07T00:15:56.847Z,808.08
2017-07-07T00:16:01.184Z,808.1
2017-07-07T00:16:05.509Z,808.07
2017-07-07T00:16:09.700Z,808.11
2017-07-07T00:16:13.530Z,808.06
2017-07-07T00:16:17.605Z,808.05
2017-07-07T00:16:21.932Z,808.07
2017-07-07T00:16:25.755Z,808.06
2017-07-07T00:16:29.710Z,808.05
2017-07-07T00:16:33.909Z,808.04
2017-07-07T00:16:37.978Z,808.02
2017-07-07T00:16:42.042Z,807.98
2017-07-07T00:16:46.122Z,808.02
2017-07-07T00:16:50.330Z,808.01
2017-07-07T00:16:54.407Z,807.99
2017-07-07T00:16:58.610Z,808.01
2017-07-07T00:17:02.561Z,807.99
2017-07-07T00:17:06.518Z,808.02
2017-07-07T00:17:10.588Z,807.97
2017-07-07T00:17:14.535Z,808
2017-07-07T00:17:18.867Z,807.98
2017-07-07T00:17:22.941Z,807.97
2017-07-07T00:17:26.895Z,807.96
2017-07-07T00:17:31.242Z,807.95
2017-07-07T00:17:35.066Z,807.95
2017-07-07T00:17:39.255Z,807.93
2017-07-07T00:17:43.197Z,807.94
2017-07-07T00:17:47.415Z,807.92
2017-07-07T00:17:51.739Z,807.96
2017-07-07T00:17:56.071Z,807.89
2017-07-07T00:18:00.142Z,807.9
2017-07-07T00:18:04.092Z,807.92
2017-07-07T00:18:08.155Z,807.91
2017-07-07T00:18:12.496Z,807.89
2017-07-07T00:18:16.641Z,807.94
2017-07-07T00:18:20.832Z,807.9
2017-07-07T00:18:24.518Z,807.92
2017-07-07T00:18:28.719Z,807.91
2017-07-07T00:18:32.922Z,807.9
2017-07-07T00:18:36.859Z,807.89
2017-07-07T00:18:40.690Z,807.9
2017-07-07T00:18:44.915Z,807.83
2017-07-07T00:18:49.242Z,807.89
2017-07-07T00:18:53.450Z,807.88
2017-07-07T00:18:57.653Z,807.86
2017-07-07T00:19:01.971Z,807.85
2017-07-07T00:19:05.660Z,807.86
2017-07-07T00:19:09.966Z,807.87
2017-07-07T00:19:13.797Z,807.85
2017-07-07T00:19:17.998Z,807.8
2017-07-07T00:19:22.312Z,807.82
2017-07-07T00:19:26.262Z,807.85
2017-07-07T00:19:30.591Z,807.8
2017-07-07T00:19:34.792Z,807.83
2017-07-07T00:19:38.992Z,807.79
2017-07-07T00:19:42.685Z,807.83
2017-07-07T00:19:46.896Z,807.82
2017-07-07T00:19:51.102Z,807.82
2017-07-07T00:19:55.304Z,807.79
2017-07-07T00:19:59.511Z,807.82
2017-07-07T00:20:03.200Z,807.81
2017-07-07T00:20:07.262Z,807.8
2017-07-07T00:20:11.398Z,807.79
2017-07-07T00:20:15.618Z,807.78
2017-07-07T00:20:19.689Z,807.79
2017-07-07T00:20:23.753Z,807.84
2017-07-07T00:20:27.959Z,807.78
2017-07-07T00:20:32.160Z,807.78
2017-07-07T00:20:36.476Z,807.8
2017-07-07T00:20:40.560Z,807.81
2017-07-07T00:20:44.760Z,807.76
2017-07-07T00:20:48.976Z,807.79
2017-07-07T00:20:53.198Z,807.78
2017-07-07T00:20:57.409Z,807.76
2017-07-07T00:21:01.374Z,807.77
2017-07-07T00:21:05.450Z,807.77
2017-07-07T00:21:09.662Z,807.78
2017-07-07T00:21:13.870Z,807.77
2017-07-07T00:21:17.951Z,807.72
2017-07-07T00:21:22.025Z,807.75
2017-07-07T00:21:26.240Z,807.75
2017-07-07T00:21:30.567Z,807.72
2017-07-07T00:21:34.770Z,807.78
2017-07-07T00:21:38.865Z,807.77
2017-07-07T00:21:42.566Z,807.77
2017-07-07T00:21:46.647Z,807.73
2017-07-07T00:21:50.618Z,807.75
2017-07-07T00:21:54.562Z,807.75
2017-07-07T00:21:58.515Z,807.75
2017-07-07T00:22:02.226Z,807.74
2017-07-07T00:22:05.931Z,807.76
2017-07-07T00:22:09.624Z,807.73
2017-07-07T00:22:13.317Z,807.74
2017-07-07T00:22:17.015Z,807.71
2017-07-07T00:22:20.724Z,807.72
2017-07-07T00:22:24.457Z,807.68
2017-07-07T00:22:28.111Z,807.69
2017-07-07T00:22:31.802Z,807.76
2017-07-07T00:22:35.515Z,807.73
2017-07-07T00:22:39.337Z,807.75
2017-07-07T00:22:43.045Z,807.75
2017-07-07T00:22:46.737Z,807.74
2017-07-07T00:22:50.571Z,807.74
2017-07-07T00:22:54.266Z,807.72
2017-07-07T00:22:57.960Z,807.75
2017-07-07T00:23:02.127Z,807.74
2017-07-07T00:23:05.954Z,807.76
2017-07-07T00:23:09.660Z,807.75
2017-07-07T00:23:13.366Z,807.74
2017-07-07T00:23:17.066Z,807.73
2017-07-07T00:23:21.025Z,807.75
2017-07-07T00:23:24.716Z,807.73
2017-07-07T00:23:28.429Z,807.75
2017-07-07T00:23:32.395Z,807.74
2017-07-07T00:23:36.476Z,807.73
2017-07-07T00:23:40.178Z,807.75
2017-07-07T00:23:43.992Z,807.76
2017-07-07T00:23:47.696Z,807.75
2017-07-07T00:23:51.522Z,807.74
2017-07-07T00:23:55.351Z,807.78
2017-07-07T00:23:59.304Z,807.77
2017-07-07T00:24:03.311Z,807.75
2017-07-07T00:24:07.008Z,807.74
2017-07-07T00:24:10.968Z,807.77
2017-07-07T00:24:15.226Z,807.74
2017-07-07T00:24:19.422Z,807.79
2017-07-07T00:24:23.363Z,807.75
2017-07-07T00:24:27.682Z,807.77
2017-07-07T00:24:32.025Z,807.75
2017-07-07T00:24:36.223Z,807.77
2017-07-07T00:24:40.319Z,807.76
2017-07-07T00:24:44.147Z,807.78
2017-07-07T00:24:48.501Z,807.76
2017-07-07T00:24:52.463Z,807.76
2017-07-07T00:24:56.671Z,807.74
2017-07-07T00:25:00.737Z,807.75
2017-07-07T00:25:04.558Z,807.73
2017-07-07T00:25:08.778Z,807.75
2017-07-07T00:25:12.853Z,807.73
2017-07-07T00:25:17.060Z,807.75
2017-07-07T00:25:21.124Z,807.76
2017-07-07T00:25:24.953Z,807.72
2017-07-07T00:25:29.178Z,807.75
2017-07-07T00:25:33.402Z,807.74
2017-07-07T00:25:37.604Z,807.76
2017-07-07T00:25:41.549Z,807.75
2017-07-07T00:25:45.378Z,807.71
2017-07-07T00:25:49.460Z,807.77
2017-07-07T00:25:53.419Z,807.75
2017-07-07T00:25:57.249Z,807.76
2017-07-07T00:26:01.086Z,807.76
2017-07-07T00:26:05.163Z,807.72
2017-07-07T00:26:09.253Z,807.76
2017-07-07T00:26:13.457Z,807.73
2017-07-07T00:26:17.527Z,807.72
2017-07-07T00:26:21.479Z,807.73
2017-07-07T00:26:25.438Z,807.7
2017-07-07T00:26:29.393Z,807.72
2017-07-07T00:26:33.719Z,807.72
2017-07-07T00:26:38.181Z,807.73
2017-07-07T00:26:42.010Z,807.7
2017-07-07T00:26:45.963Z,807.73
2017-07-07T00:26:50.181Z,807.72
2017-07-07T00:26:53.991Z,807.65
2017-07-07T00:26:58.322Z,807.7
2017-07-07T00:27:02.826Z,807.66
2017-07-07T00:27:07.150Z,807.73
2017-07-07T00:27:11.221Z,807.7
2017-07-07T00:27:15.301Z,807.68
2017-07-07T00:27:19.240Z,807.68
2017-07-07T00:27:23.191Z,807.69
2017-07-07T00:27:27.389Z,807.69
2017-07-07T00:27:31.603Z,807.68
2017-07-07T00:27:35.679Z,807.71
2017-07-07T00:27:39.892Z,807.69
2017-07-07T00:27:43.852Z,807.71
2017-07-07T00:27:47.831Z,807.68
2017-07-07T00:27:51.661Z,807.65
2017-07-07T00:27:55.993Z,807.66
2017-07-07T00:28:00.066Z,807.67
2017-07-07T00:28:04.001Z,807.64
2017-07-07T00:28:08.036Z,807.63
2017-07-07T00:28:12.107Z,807.64
2017-07-07T00:28:16.178Z,807.63
2017-07-07T00:28:20.138Z,807.66
2017-07-07T00:28:24.103Z,807.63
2017-07-07T00:28:28.164Z,807.62
2017-07-07T00:28:32.247Z,807.62
2017-07-07T00:28:36.320Z,807.61
2017-07-07T00:28:40.398Z,807.61
2017-07-07T00:28:44.231Z,807.6
2017-07-07T00:28:48.435Z,807.63
2017-07-07T00:28:52.520Z,807.63
2017-07-07T00:28:56.845Z,807.57
2017-07-07T00:29:01.072Z,807.59
2017-07-07T00:29:05.403Z,807.64
2017-07-07T00:29:09.872Z,807.59
2017-07-07T00:29:13.586Z,807.6
2017-07-07T00:29:17.399Z,807.61
2017-07-07T00:29:21.550Z,807.58
2017-07-07T00:29:25.508Z,807.57
2017-07-07T00:29:29.712Z,807.63
2017-07-07T00:29:34.044Z,807.6
2017-07-07T00:29:38.263Z,807.58
2017-07-07T00:29:42.210Z,807.59
2017-07-07T00:29:46.027Z,807.56
2017-07-07T00:29:49.983Z,807.6
2017-07-07T00:29:54.074Z,807.57
2017-07-07T00:29:58.360Z,807.55
2017-07-07T00:30:02.678Z,807.58
2017-07-07T00:30:07.004Z,807.54
2017-07-07T00:30:10.965Z,807.52
2017-07-07T00:30:15.046Z,807.52
2017-07-07T00:30:18.998Z,807.55
2017-07-07T00:30:23.079Z,807.53
2017-07-07T00:30:27.404Z,807.52
2017-07-07T00:30:31.859Z,807.54
2017-07-07T00:30:35.804Z,807.54
2017-07-07T00:30:39.629Z,807.54
2017-07-07T00:30:43.446Z,807.55
2017-07-07T00:30:47.784Z,807.51
2017-07-07T00:30:51.755Z,807.55
2017-07-07T00:30:56.088Z,807.52
2017-07-07T00:31:00.290Z,807.51
2017-07-07T00:31:04.566Z,807.55
2017-07-07T00:31:08.913Z,807.48
2017-07-07T00:31:13.111Z,807.51
2017-07-07T00:31:17.190Z,807.49
2017-07-07T00:31:21.160Z,807.47
2017-07-07T00:31:24.864Z,807.46
2017-07-07T00:31:29.329Z,807.52
2017-07-07T00:31:33.654Z,807.44
2017-07-07T00:31:37.839Z,807.48
2017-07-07T00:31:41.777Z,807.45
2017-07-07T00:31:45.981Z,807.49
2017-07-07T00:31:50.322Z,807.49
2017-07-07T00:31:54.406Z,807.44
2017-07-07T00:31:58.596Z,807.47
2017-07-07T00:32:02.818Z,807.45
2017-07-07T00:32:07.152Z,807.43
2017-07-07T00:32:11.231Z,807.43
2017-07-07T00:32:15.176Z,807.44
2017-07-07T00:32:19.242Z,807.47
2017-07-07T00:32:23.188Z,807.47
2017-07-07T00:32:27.408Z,807.44
2017-07-07T00:32:31.494Z,807.45
2017-07-07T00:32:35.951Z,807.46
2017-07-07T00:32:40.017Z,807.46
2017-07-07T00:32:43.850Z,807.44
2017-07-07T00:32:48.200Z,807.46
2017-07-07T00:32:52.153Z,807.45
2017-07-07T00:32:56.246Z,807.41
2017-07-07T00:33:00.195Z,807.45
2017-07-07T00:33:04.455Z,807.44
2017-07-07T00:33:08.648Z,807.45
2017-07-07T00:33:12.469Z,807.45
2017-07-07T00:33:16.714Z,807.45
2017-07-07T00:33:21.034Z,807.44
2017-07-07T00:33:25.025Z,807.43
2017-07-07T00:33:29.364Z,807.37
2017-07-07T00:33:33.314Z,807.42
2017-07-07T00:33:37.630Z,807.42
2017-07-07T00:33:41.577Z,807.42
2017-07-07T00:33:46.023Z,807.43
2017-07-07T00:33:49.991Z,807.45
2017-07-07T00:33:53.943Z,807.44
2017-07-07T00:33:58.018Z,807.43
2017-07-07T00:34:02.347Z,807.44
2017-07-07T00:34:06.293Z,807.44
2017-07-07T00:34:10.248Z,807.45
2017-07-07T00:34:14.448Z,807.46
2017-07-07T00:34:18.662Z,807.43
2017-07-07T00:34:22.740Z,807.43
2017-07-07T00:34:26.814Z,807.45
2017-07-07T00:34:30.901Z,807.46
2017-07-07T00:34:34.976Z,807.46
2017-07-07T00:34:39.442Z,807.45
2017-07-07T00:34:43.390Z,807.43
2017-07-07T00:34:47.713Z,807.45
2017-07-07T00:34:51.654Z,807.43
2017-07-07T00:34:55.986Z,807.44
2017-07-07T00:35:00.307Z,807.43
2017-07-07T00:35:04.383Z,807.42
2017-07-07T00:35:08.588Z,807.4
2017-07-07T00:35:12.551Z,807.44
2017-07-07T00:35:16.639Z,807.43
2017-07-07T00:35:20.595Z,807.43
2017-07-07T00:35:24.540Z,807.43
2017-07-07T00:35:28.628Z,807.38
2017-07-07T00:35:32.846Z,807.39
2017-07-07T00:35:37.051Z,807.44
2017-07-07T00:35:41.122Z,807.4
2017-07-07T00:35:45.068Z,807.42
2017-07-07T00:35:49.139Z,807.43
2017-07-07T00:35:53.284Z,807.38
2017-07-07T00:35:57.356Z,807.43
2017-07-07T00:36:01.296Z,807.41
2017-07-07T00:36:05.120Z,807.38
2017-07-07T00:36:09.194Z,807.38
2017-07-07T00:36:13.402Z,807.41
2017-07-07T00:36:17.611Z,807.4
2017-07-07T00:36:21.316Z,807.4
2017-07-07T00:36:25.032Z,807.39
2017-07-07T00:36:29.111Z,807.4
2017-07-07T00:36:33.456Z,807.41
2017-07-07T00:36:37.657Z,807.42
2017-07-07T00:36:41.482Z,807.41
2017-07-07T00:36:45.817Z,807.41
2017-07-07T00:36:50.009Z,807.39
2017-07-07T00:36:53.963Z,807.38
2017-07-07T00:36:57.915Z,807.4
2017-07-07T00:37:02.127Z,807.39
2017-07-07T00:37:06.211Z,807.4
2017-07-07T00:37:10.412Z,807.37
2017-07-07T00:37:14.492Z,807.39
2017-07-07T00:37:18.687Z,807.38
2017-07-07T00:37:22.776Z,807.39
2017-07-07T00:37:27.109Z,807.4
2017-07-07T00:37:31.063Z,807.39
2017-07-07T00:37:35.018Z,807.39
2017-07-07T00:37:39.226Z,807.38
2017-07-07T00:37:43.066Z,807.38
2017-07-07T00:37:47.272Z,807.36
2017-07-07T00:37:51.233Z,807.4
2017-07-07T00:37:55.564Z,807.38
2017-07-07T00:37:59.892Z,807.38
2017-07-07T00:38:04.160Z,807.37
2017-07-07T00:38:08.099Z,807.37
2017-07-07T00:38:12.186Z,807.36
2017-07-07T00:38:16.260Z,807.35
2017-07-07T00:38:20.338Z,807.39
2017-07-07T00:38:24.275Z,807.36
2017-07-07T00:38:28.478Z,807.33
2017-07-07T00:38:32.568Z,807.37
2017-07-07T00:38:36.638Z,807.34
2017-07-07T00:38:40.339Z,807.35
2017-07-07T00:38:44.169Z,807.36
2017-07-07T00:38:48.250Z,807.37
2017-07-07T00:38:52.449Z,807.3
2017-07-07T00:38:56.521Z,807.33
2017-07-07T00:39:00.857Z,807.29
2017-07-07T00:39:05.135Z,807.32
2017-07-07T00:39:09.476Z,807.34
2017-07-07T00:39:13.304Z,807.31
2017-07-07T00:39:17.376Z,807.33
2017-07-07T00:39:21.569Z,807.34
2017-07-07T00:39:25.639Z,807.32
2017-07-07T00:39:30.096Z,807.28
2017-07-07T00:39:34.313Z,807.26
2017-07-07T00:39:38.697Z,807.3
2017-07-07T00:39:42.657Z,807.31
2017-07-07T00:39:46.887Z,807.29
2017-07-07T00:39:51.086Z,807.29
2017-07-07T00:39:55.435Z,807.24
2017-07-07T00:39:59.766Z,807.28
2017-07-07T00:40:04.149Z,807.27
2017-07-07T00:40:07.973Z,807.28
2017-07-07T00:40:11.795Z,807.27
2017-07-07T00:40:15.998Z,807.26
2017-07-07T00:40:20.335Z,807.26
2017-07-07T00:40:24.296Z,807.25
2017-07-07T00:40:28.745Z,807.25
2017-07-07T00:40:33.082Z,807.23
2017-07-07T00:40:36.891Z,807.22
2017-07-07T00:40:40.844Z,807.25
2017-07-07T00:40:44.790Z,807.24
2017-07-07T00:40:48.488Z,807.24
2017-07-07T00:40:52.567Z,807.26
2017-07-07T00:40:56.913Z,807.21
2017-07-07T00:41:00.994Z,807.21
2017-07-07T00:41:05.066Z,807.23
2017-07-07T00:41:09.391Z,807.21
2017-07-07T00:41:13.598Z,807.22
2017-07-07T00:41:17.700Z,807.2
2017-07-07T00:41:22.052Z,807.23
2017-07-07T00:41:26.116Z,807.16
2017-07-07T00:41:30.573Z,807.18
2017-07-07T00:41:34.795Z,807.19
2017-07-07T00:41:38.877Z,807.14
2017-07-07T00:41:42.958Z,807.15
2017-07-07T00:41:46.782Z,807.15
2017-07-07T00:41:50.982Z,807.15
2017-07-07T00:41:54.934Z,807.15
2017-07-07T00:41:59.028Z,807.14
2017-07-07T00:42:03.097Z,807.09
2017-07-07T00:42:07.286Z,807.11
2017-07-07T00:42:11.372Z,807.08
2017-07-07T00:42:15.584Z,807.1
2017-07-07T00:42:19.538Z,807.1
2017-07-07T00:42:23.860Z,807.06
2017-07-07T00:42:28.068Z,807.1
2017-07-07T00:42:32.264Z,807.07
2017-07-07T00:42:36.232Z,807.11
2017-07-07T00:42:40.439Z,807.07
2017-07-07T00:42:44.268Z,807.06
2017-07-07T00:42:48.377Z,807.04
2017-07-07T00:42:52.706Z,807.02
2017-07-07T00:42:56.903Z,807.03
2017-07-07T00:43:00.733Z,807.03
2017-07-07T00:43:04.867Z,807.04
2017-07-07T00:43:09.075Z,807.02
2017-07-07T00:43:13.390Z,807.01
2017-07-07T00:43:17.326Z,807.02
2017-07-07T00:43:21.669Z,806.97
2017-07-07T00:43:25.628Z,806.96
2017-07-07T00:43:29.709Z,806.97
2017-07-07T00:43:33.902Z,806.97
2017-07-07T00:43:38.240Z,806.94
2017-07-07T00:43:42.571Z,806.93
2017-07-07T00:43:47.038Z,806.93
2017-07-07T00:43:51.006Z,806.9
2017-07-07T00:43:55.079Z,806.92
2017-07-07T00:43:59.159Z,806.9
2017-07-07T00:44:03.023Z,806.87
2017-07-07T00:44:06.837Z,806.91
2017-07-07T00:44:10.676Z,806.91
2017-07-07T00:44:15.006Z,806.91
2017-07-07T00:44:18.979Z,806.88
2017-07-07T00:44:22.807Z,806.87
2017-07-07T00:44:26.760Z,806.88
2017-07-07T00:44:31.210Z,806.86
2017-07-07T00:44:35.287Z,806.87
2017-07-07T00:44:39.484Z,806.83
2017-07-07T00:44:43.227Z,806.85
2017-07-07T00:44:47.570Z,806.85
2017-07-07T00:44:51.913Z,806.85
2017-07-07T00:44:55.749Z,806.77
2017-07-07T00:44:59.950Z,806.83
2017-07-07T00:45:04.159Z,806.8
2017-07-07T00:45:08.234Z,806.76
2017-07-07T00:45:12.188Z,806.75
2017-07-07T00:45:16.654Z,806.74
2017-07-07T00:45:20.852Z,806.76
2017-07-07T00:45:24.560Z,806.75
2017-07-07T00:45:28.757Z,806.74
2017-07-07T00:45:32.982Z,806.74
2017-07-07T00:45:37.182Z,806.69
2017-07-07T00:45:41.529Z,806.71
2017-07-07T00:45:45.881Z,806.7
2017-07-07T00:45:50.212Z,806.67
2017-07-07T00:45:54.296Z,806.66
2017-07-07T00:45:58.121Z,806.69
2017-07-07T00:46:02.130Z,806.69
2017-07-07T00:46:06.203Z,806.67
2017-07-07T00:46:10.272Z,806.65
2017-07-07T00:46:14.089Z,806.65
2017-07-07T00:46:18.026Z,806.63
2017-07-07T00:46:22.224Z,806.63
2017-07-07T00:46:26.177Z,806.61
2017-07-07T00:46:30.266Z,806.6
2017-07-07T00:46:34.482Z,806.61
2017-07-07T00:46:38.580Z,806.56
2017-07-07T00:46:42.669Z,806.6
2017-07-07T00:46:47.124Z,806.56
2017-07-07T00:46:51.203Z,806.54
2017-07-07T00:46:55.283Z,806.49
2017-07-07T00:46:59.485Z,806.52
2017-07-07T00:47:03.553Z,806.51
2017-07-07T00:47:07.890Z,806.51
2017-07-07T00:47:12.091Z,806.5
2017-07-07T00:47:16.291Z,806.44
2017-07-07T00:47:20.242Z,806.47
2017-07-07T00:47:24.068Z,806.47
2017-07-07T00:47:28.139Z,806.47
2017-07-07T00:47:32.285Z,806.39
2017-07-07T00:47:36.097Z,806.43
2017-07-07T00:47:40.190Z,806.45
2017-07-07T00:47:44.260Z,806.44
2017-07-07T00:47:48.593Z,806.41
2017-07-07T00:47:52.546Z,806.4
2017-07-07T00:47:56.631Z,806.41
2017-07-07T00:48:00.852Z,806.4
2017-07-07T00:48:04.676Z,806.4
2017-07-07T00:48:08.770Z,806.42
2017-07-07T00:48:12.718Z,806.38
2017-07-07T00:48:16.661Z,806.38
2017-07-07T00:48:20.993Z,806.38
2017-07-07T00:48:24.801Z,806.38
2017-07-07T00:48:28.887Z,806.35
2017-07-07T00:48:33.220Z,806.37
2017-07-07T00:48:37.538Z,806.36
2017-07-07T00:48:41.364Z,806.34
2017-07-07T00:48:45.458Z,806.34
2017-07-07T00:48:49.656Z,806.28
2017-07-07T00:48:53.855Z,806.31
2017-07-07T00:48:58.068Z,806.31
2017-07-07T00:49:02.397Z,806.31
2017-07-07T00:49:06.536Z,806.28
2017-07-07T00:49:10.450Z,806.28
2017-07-07T00:49:14.776Z,806.3
2017-07-07T00:49:18.724Z,806.29
2017-07-07T00:49:22.799Z,806.29
2017-07-07T00:49:26.991Z,806.26
2017-07-07T00:49:31.204Z,806.28
2017-07-07T00:49:35.426Z,806.27
2017-07-07T00:49:39.499Z,806.22
2017-07-07T00:49:43.452Z,806.25
2017-07-07T00:49:47.913Z,806.21
2017-07-07T00:49:52.121Z,806.22
2017-07-07T00:49:56.317Z,806.25
2017-07-07T00:50:00.654Z,806.2
2017-07-07T00:50:04.647Z,806.22
2017-07-07T00:50:08.991Z,806.17
2017-07-07T00:50:12.809Z,806.2
2017-07-07T00:50:17.140Z,806.22
2017-07-07T00:50:21.590Z,806.17
2017-07-07T00:50:25.556Z,806.13
2017-07-07T00:50:29.758Z,806.19
2017-07-07T00:50:33.958Z,806.18
2017-07-07T00:50:37.900Z,806.14
2017-07-07T00:50:41.847Z,806.14
2017-07-07T00:50:46.067Z,806.18
2017-07-07T00:50:49.877Z,806.17
2017-07-07T00:50:53.951Z,806.14
2017-07-07T00:50:58.154Z,806.16
2017-07-07T00:51:02.548Z,806.15
2017-07-07T00:51:06.386Z,806.14
2017-07-07T00:51:10.225Z,806.12